sensor_id;sensor_type;location;lat;lon;timestamp;P1;durP1;ratioP1;P2;durP2;ratioP2
21138;SDS011;10727;43.600;1.444;2024-02-26T00:01:17;5.50;;;2.67;;
21138;SDS011;10727;43.600;1.444;2024-02-26T00:04:23;6.65;;;2.70;;
21138;SDS011;10727;43.600;1.444;2024-02-26T00:07:28;4.88;;;2.67;;
21138;SDS011;10727;43.600;1.444;2024-02-26T00:10:34;6.70;;;2.95;;
21138;SDS011;10727;43.600;1.444;2024-02-26T00:13:39;6.25;;;2.60;;
21138;SDS011;10727;43.600;1.444;2024-02-26T00:16:44;6.10;;;2.42;;
21138;SDS011;10727;43.600;1.444;2024-02-26T00:19:51;5.50;;;2.47;;
21138;SDS011;10727;43.600;1.444;2024-02-26T00:22:57;4.70;;;2.45;;
21138;SDS011;10727;43.600;1.444;2024-02-26T00:26:02;5.55;;;2.63;;
21138;SDS011;10727;43.600;1.444;2024-02-26T00:29:07;5.65;;;2.20;;
21138;SDS011;10727;43.600;1.444;2024-02-26T00:32:12;4.65;;;2.30;;
21138;SDS011;10727;43.600;1.444;2024-02-26T00:35:19;3.92;;;2.10;;
21138;SDS011;10727;43.600;1.444;2024-02-26T00:38:24;6.47;;;2.53;;
21138;SDS011;10727;43.600;1.444;2024-02-26T00:41:29;6.40;;;2.17;;
21138;SDS011;10727;43.600;1.444;2024-02-26T00:44:35;7.53;;;2.80;;
21138;SDS011;10727;43.600;1.444;2024-02-26T00:47:40;4.25;;;2.63;;
21138;SDS011;10727;43.600;1.444;2024-02-26T00:50:46;6.90;;;2.30;;
21138;SDS011;10727;43.600;1.444;2024-02-26T00:53:52;7.40;;;2.75;;
21138;SDS011;10727;43.600;1.444;2024-02-26T00:56:57;7.10;;;2.30;;
21138;SDS011;10727;43.600;1.444;2024-02-26T01:00:02;4.28;;;2.45;;
21138;SDS011;10727;43.600;1.444;2024-02-26T01:03:08;3.15;;;2.50;;
21138;SDS011;10727;43.600;1.444;2024-02-26T01:06:15;6.72;;;2.80;;
21138;SDS011;10727;43.600;1.444;2024-02-26T01:09:21;6.45;;;2.70;;
21138;SDS011;10727;43.600;1.444;2024-02-26T01:12:27;6.50;;;2.30;;
21138;SDS011;10727;43.600;1.444;2024-02-26T01:15:32;3.00;;;2.00;;
21138;SDS011;10727;43.600;1.444;2024-02-26T01:18:37;6.85;;;2.20;;
21138;SDS011;10727;43.600;1.444;2024-02-26T01:25:11;4.65;;;2.20;;
21138;SDS011;10727;43.600;1.444;2024-02-26T01:28:17;6.65;;;2.10;;
21138;SDS011;10727;43.600;1.444;2024-02-26T01:31:23;5.88;;;1.80;;
21138;SDS011;10727;43.600;1.444;2024-02-26T01:34:28;4.97;;;1.92;;
21138;SDS011;10727;43.600;1.444;2024-02-26T01:37:34;3.63;;;1.98;;
21138;SDS011;10727;43.600;1.444;2024-02-26T01:40:40;6.38;;;2.10;;
21138;SDS011;10727;43.600;1.444;2024-02-26T01:43:46;4.40;;;1.95;;
21138;SDS011;10727;43.600;1.444;2024-02-26T01:46:51;4.82;;;2.13;;
21138;SDS011;10727;43.600;1.444;2024-02-26T01:49:57;6.68;;;1.90;;
21138;SDS011;10727;43.600;1.444;2024-02-26T01:53:06;4.53;;;2.00;;
21138;SDS011;10727;43.600;1.444;2024-02-26T01:56:14;5.07;;;2.10;;
21138;SDS011;10727;43.600;1.444;2024-02-26T01:59:20;4.85;;;2.03;;
21138;SDS011;10727;43.600;1.444;2024-02-26T02:02:25;6.70;;;2.40;;
21138;SDS011;10727;43.600;1.444;2024-02-26T02:05:31;5.10;;;2.10;;
21138;SDS011;10727;43.600;1.444;2024-02-26T02:08:38;3.70;;;1.98;;
21138;SDS011;10727;43.600;1.444;2024-02-26T02:11:45;5.22;;;1.95;;
21138;SDS011;10727;43.600;1.444;2024-02-26T02:14:52;4.72;;;1.85;;
21138;SDS011;10727;43.600;1.444;2024-02-26T02:17:58;4.85;;;1.92;;
21138;SDS011;10727;43.600;1.444;2024-02-26T02:21:05;6.47;;;2.92;;
21138;SDS011;10727;43.600;1.444;2024-02-26T02:24:10;5.28;;;2.38;;
21138;SDS011;10727;43.600;1.444;2024-02-26T02:27:15;7.20;;;2.28;;
21138;SDS011;10727;43.600;1.444;2024-02-26T02:30:21;3.70;;;1.92;;
21138;SDS011;10727;43.600;1.444;2024-02-26T02:33:29;5.95;;;2.42;;
21138;SDS011;10727;43.600;1.444;2024-02-26T02:36:35;6.15;;;2.28;;
21138;SDS011;10727;43.600;1.444;2024-02-26T02:40:00;4.82;;;2.10;;
21138;SDS011;10727;43.600;1.444;2024-02-26T02:43:06;8.90;;;2.30;;
21138;SDS011;10727;43.600;1.444;2024-02-26T02:46:11;8.10;;;2.22;;
21138;SDS011;10727;43.600;1.444;2024-02-26T02:49:17;6.93;;;1.95;;
21138;SDS011;10727;43.600;1.444;2024-02-26T02:52:23;5.28;;;2.40;;
21138;SDS011;10727;43.600;1.444;2024-02-26T02:55:28;6.20;;;2.10;;
21138;SDS011;10727;43.600;1.444;2024-02-26T02:58:33;7.13;;;2.17;;
21138;SDS011;10727;43.600;1.444;2024-02-26T03:01:38;7.70;;;2.10;;
21138;SDS011;10727;43.600;1.444;2024-02-26T03:04:44;11.77;;;2.80;;
21138;SDS011;10727;43.600;1.444;2024-02-26T03:07:51;8.52;;;2.47;;
21138;SDS011;10727;43.600;1.444;2024-02-26T03:10:58;9.30;;;2.25;;
21138;SDS011;10727;43.600;1.444;2024-02-26T03:14:03;11.35;;;2.15;;
21138;SDS011;10727;43.600;1.444;2024-02-26T03:17:09;7.40;;;2.10;;
21138;SDS011;10727;43.600;1.444;2024-02-26T03:20:14;8.68;;;1.95;;
21138;SDS011;10727;43.600;1.444;2024-02-26T03:23:23;9.52;;;2.05;;
21138;SDS011;10727;43.600;1.444;2024-02-26T03:26:28;9.00;;;2.22;;
21138;SDS011;10727;43.600;1.444;2024-02-26T03:29:33;8.43;;;2.03;;
21138;SDS011;10727;43.600;1.444;2024-02-26T03:32:38;9.43;;;2.05;;
21138;SDS011;10727;43.600;1.444;2024-02-26T03:35:44;8.15;;;1.95;;
21138;SDS011;10727;43.600;1.444;2024-02-26T03:38:50;7.88;;;1.83;;
21138;SDS011;10727;43.600;1.444;2024-02-26T03:41:55;8.57;;;2.00;;
21138;SDS011;10727;43.600;1.444;2024-02-26T03:45:01;6.25;;;1.58;;
21138;SDS011;10727;43.600;1.444;2024-02-26T03:48:06;8.98;;;1.70;;
21138;SDS011;10727;43.600;1.444;2024-02-26T03:51:11;5.57;;;1.40;;
21138;SDS011;10727;43.600;1.444;2024-02-26T03:54:18;8.55;;;1.85;;
21138;SDS011;10727;43.600;1.444;2024-02-26T03:57:23;6.32;;;1.77;;
21138;SDS011;10727;43.600;1.444;2024-02-26T04:00:28;5.20;;;1.52;;
21138;SDS011;10727;43.600;1.444;2024-02-26T04:03:34;6.90;;;1.52;;
21138;SDS011;10727;43.600;1.444;2024-02-26T04:06:39;5.88;;;1.23;;
21138;SDS011;10727;43.600;1.444;2024-02-26T04:09:45;4.97;;;1.33;;
21138;SDS011;10727;43.600;1.444;2024-02-26T04:12:50;3.67;;;1.15;;
21138;SDS011;10727;43.600;1.444;2024-02-26T04:15:56;3.65;;;1.35;;
21138;SDS011;10727;43.600;1.444;2024-02-26T04:19:01;5.15;;;1.42;;
21138;SDS011;10727;43.600;1.444;2024-02-26T04:22:06;3.63;;;1.40;;
21138;SDS011;10727;43.600;1.444;2024-02-26T04:25:13;7.50;;;1.17;;
21138;SDS011;10727;43.600;1.444;2024-02-26T04:28:18;4.90;;;1.15;;
21138;SDS011;10727;43.600;1.444;2024-02-26T04:31:24;7.97;;;1.70;;
21138;SDS011;10727;43.600;1.444;2024-02-26T04:34:30;6.53;;;1.45;;
21138;SDS011;10727;43.600;1.444;2024-02-26T04:37:36;4.00;;;1.73;;
21138;SDS011;10727;43.600;1.444;2024-02-26T04:40:42;7.05;;;1.20;;
21138;SDS011;10727;43.600;1.444;2024-02-26T04:43:47;4.45;;;1.05;;
21138;SDS011;10727;43.600;1.444;2024-02-26T04:46:53;5.38;;;1.20;;
21138;SDS011;10727;43.600;1.444;2024-02-26T04:49:58;2.60;;;1.00;;
21138;SDS011;10727;43.600;1.444;2024-02-26T04:53:03;8.10;;;1.30;;
21138;SDS011;10727;43.600;1.444;2024-02-26T04:56:10;6.07;;;1.25;;
21138;SDS011;10727;43.600;1.444;2024-02-26T04:59:15;3.50;;;0.90;;
21138;SDS011;10727;43.600;1.444;2024-02-26T05:02:21;4.22;;;0.95;;
21138;SDS011;10727;43.600;1.444;2024-02-26T05:05:27;5.60;;;1.40;;
21138;SDS011;10727;43.600;1.444;2024-02-26T05:08:32;4.43;;;1.10;;
21138;SDS011;10727;43.600;1.444;2024-02-26T05:11:40;3.42;;;1.00;;
21138;SDS011;10727;43.600;1.444;2024-02-26T05:14:45;4.30;;;1.00;;
21138;SDS011;10727;43.600;1.444;2024-02-26T05:17:50;5.93;;;1.17;;
21138;SDS011;10727;43.600;1.444;2024-02-26T05:20:55;5.45;;;1.38;;
21138;SDS011;10727;43.600;1.444;2024-02-26T05:24:01;4.47;;;1.25;;
21138;SDS011;10727;43.600;1.444;2024-02-26T05:27:07;5.05;;;1.13;;
21138;SDS011;10727;43.600;1.444;2024-02-26T05:30:13;5.93;;;1.25;;
21138;SDS011;10727;43.600;1.444;2024-02-26T05:33:18;3.67;;;0.90;;
21138;SDS011;10727;43.600;1.444;2024-02-26T05:36:24;2.20;;;0.75;;
21138;SDS011;10727;43.600;1.444;2024-02-26T05:39:31;4.50;;;0.80;;
21138;SDS011;10727;43.600;1.444;2024-02-26T05:42:38;5.15;;;0.98;;
21138;SDS011;10727;43.600;1.444;2024-02-26T05:45:43;5.90;;;0.90;;
21138;SDS011;10727;43.600;1.444;2024-02-26T05:48:49;6.57;;;0.95;;
21138;SDS011;10727;43.600;1.444;2024-02-26T05:51:54;2.42;;;0.80;;
21138;SDS011;10727;43.600;1.444;2024-02-26T05:54:59;5.18;;;1.17;;
21138;SDS011;10727;43.600;1.444;2024-02-26T05:58:06;3.42;;;0.88;;
21138;SDS011;10727;43.600;1.444;2024-02-26T06:01:11;1.63;;;0.90;;
21138;SDS011;10727;43.600;1.444;2024-02-26T06:04:16;2.95;;;0.85;;
21138;SDS011;10727;43.600;1.444;2024-02-26T06:07:21;6.15;;;1.08;;
21138;SDS011;10727;43.600;1.444;2024-02-26T06:10:27;5.05;;;1.48;;
21138;SDS011;10727;43.600;1.444;2024-02-26T06:13:33;5.30;;;1.30;;
21138;SDS011;10727;43.600;1.444;2024-02-26T06:16:39;4.07;;;1.02;;
21138;SDS011;10727;43.600;1.444;2024-02-26T06:19:44;5.60;;;1.20;;
21138;SDS011;10727;43.600;1.444;2024-02-26T06:22:50;2.67;;;1.00;;
21138;SDS011;10727;43.600;1.444;2024-02-26T06:25:56;3.42;;;1.17;;
21138;SDS011;10727;43.600;1.444;2024-02-26T06:29:02;3.40;;;0.88;;
21138;SDS011;10727;43.600;1.444;2024-02-26T06:32:07;2.75;;;1.00;;
21138;SDS011;10727;43.600;1.444;2024-02-26T06:35:12;3.15;;;0.95;;
21138;SDS011;10727;43.600;1.444;2024-02-26T06:38:17;2.95;;;1.10;;
21138;SDS011;10727;43.600;1.444;2024-02-26T06:41:23;3.67;;;0.95;;
21138;SDS011;10727;43.600;1.444;2024-02-26T06:44:31;3.55;;;0.82;;
21138;SDS011;10727;43.600;1.444;2024-02-26T06:47:37;1.75;;;0.73;;
21138;SDS011;10727;43.600;1.444;2024-02-26T06:50:42;5.60;;;0.90;;
21138;SDS011;10727;43.600;1.444;2024-02-26T06:53:46;2.80;;;0.80;;
21138;SDS011;10727;43.600;1.444;2024-02-26T06:56:52;2.03;;;0.77;;
21138;SDS011;10727;43.600;1.444;2024-02-26T06:59:59;2.20;;;0.60;;
21138;SDS011;10727;43.600;1.444;2024-02-26T07:03:07;5.28;;;0.95;;
21138;SDS011;10727;43.600;1.444;2024-02-26T07:06:11;2.42;;;1.02;;
21138;SDS011;10727;43.600;1.444;2024-02-26T07:09:17;5.47;;;1.85;;
21138;SDS011;10727;43.600;1.444;2024-02-26T07:12:22;4.97;;;1.33;;
21138;SDS011;10727;43.600;1.444;2024-02-26T07:15:28;4.43;;;0.90;;
21138;SDS011;10727;43.600;1.444;2024-02-26T07:18:34;2.03;;;0.75;;
21138;SDS011;10727;43.600;1.444;2024-02-26T07:21:39;4.97;;;1.33;;
21138;SDS011;10727;43.600;1.444;2024-02-26T07:24:45;3.42;;;0.98;;
21138;SDS011;10727;43.600;1.444;2024-02-26T07:27:50;4.38;;;1.20;;
21138;SDS011;10727;43.600;1.444;2024-02-26T07:30:57;4.05;;;1.17;;
21138;SDS011;10727;43.600;1.444;2024-02-26T07:34:02;5.57;;;1.33;;
21138;SDS011;10727;43.600;1.444;2024-02-26T07:37:07;3.67;;;1.25;;
21138;SDS011;10727;43.600;1.444;2024-02-26T07:40:12;4.45;;;1.35;;
21138;SDS011;10727;43.600;1.444;2024-02-26T07:43:17;4.07;;;1.17;;
21138;SDS011;10727;43.600;1.444;2024-02-26T07:46:24;8.30;;;1.38;;
21138;SDS011;10727;43.600;1.444;2024-02-26T07:49:29;3.67;;;1.45;;
21138;SDS011;10727;43.600;1.444;2024-02-26T07:52:34;5.82;;;1.30;;
21138;SDS011;10727;43.600;1.444;2024-02-26T07:55:39;3.20;;;1.33;;
21138;SDS011;10727;43.600;1.444;2024-02-26T07:58:44;3.13;;;1.10;;
21138;SDS011;10727;43.600;1.444;2024-02-26T08:01:51;6.68;;;1.20;;
21138;SDS011;10727;43.600;1.444;2024-02-26T08:04:57;5.72;;;1.10;;
21138;SDS011;10727;43.600;1.444;2024-02-26T08:08:02;3.25;;;0.90;;
21138;SDS011;10727;43.600;1.444;2024-02-26T08:11:06;5.03;;;1.10;;
21138;SDS011;10727;43.600;1.444;2024-02-26T08:14:12;5.25;;;1.13;;
21138;SDS011;10727;43.600;1.444;2024-02-26T08:17:18;2.30;;;0.90;;
21138;SDS011;10727;43.600;1.444;2024-02-26T08:20:24;4.68;;;0.95;;
21138;SDS011;10727;43.600;1.444;2024-02-26T08:23:29;3.72;;;1.33;;
21138;SDS011;10727;43.600;1.444;2024-02-26T08:26:35;5.55;;;1.63;;
21138;SDS011;10727;43.600;1.444;2024-02-26T08:29:40;5.35;;;1.48;;
21138;SDS011;10727;43.600;1.444;2024-02-26T08:32:47;3.97;;;1.25;;
21138;SDS011;10727;43.600;1.444;2024-02-26T08:35:52;6.68;;;1.13;;
21138;SDS011;10727;43.600;1.444;2024-02-26T08:38:57;5.50;;;1.35;;
21138;SDS011;10727;43.600;1.444;2024-02-26T08:42:03;4.07;;;1.00;;
21138;SDS011;10727;43.600;1.444;2024-02-26T08:45:08;5.60;;;2.00;;
21138;SDS011;10727;43.600;1.444;2024-02-26T08:48:15;8.75;;;1.42;;
21138;SDS011;10727;43.600;1.444;2024-02-26T08:51:20;4.60;;;1.13;;
21138;SDS011;10727;43.600;1.444;2024-02-26T08:54:25;8.65;;;1.17;;
21138;SDS011;10727;43.600;1.444;2024-02-26T08:57:31;5.50;;;1.38;;
21138;SDS011;10727;43.600;1.444;2024-02-26T09:00:36;4.93;;;1.15;;
21138;SDS011;10727;43.600;1.444;2024-02-26T09:03:43;3.70;;;1.10;;
21138;SDS011;10727;43.600;1.444;2024-02-26T09:06:48;3.47;;;0.90;;
21138;SDS011;10727;43.600;1.444;2024-02-26T09:09:53;5.20;;;1.40;;
21138;SDS011;10727;43.600;1.444;2024-02-26T09:12:59;6.50;;;1.50;;
21138;SDS011;10727;43.600;1.444;2024-02-26T09:16:05;8.43;;;1.35;;
21138;SDS011;10727;43.600;1.444;2024-02-26T09:19:11;6.85;;;1.40;;
21138;SDS011;10727;43.600;1.444;2024-02-26T09:22:17;3.53;;;1.27;;
21138;SDS011;10727;43.600;1.444;2024-02-26T09:25:22;3.83;;;1.52;;
21138;SDS011;10727;43.600;1.444;2024-02-26T09:28:27;3.92;;;1.35;;
21138;SDS011;10727;43.600;1.444;2024-02-26T09:31:34;7.18;;;1.17;;
21138;SDS011;10727;43.600;1.444;2024-02-26T09:34:48;6.38;;;1.42;;
21138;SDS011;10727;43.600;1.444;2024-02-26T09:38:28;4.65;;;1.10;;
21138;SDS011;10727;43.600;1.444;2024-02-26T09:42:08;4.03;;;0.93;;
21138;SDS011;10727;43.600;1.444;2024-02-26T09:45:49;5.53;;;1.05;;
21138;SDS011;10727;43.600;1.444;2024-02-26T09:49:29;3.38;;;0.90;;
21138;SDS011;10727;43.600;1.444;2024-02-26T09:53:09;4.35;;;1.20;;
21138;SDS011;10727;43.600;1.444;2024-02-26T09:56:48;3.85;;;1.20;;
21138;SDS011;10727;43.600;1.444;2024-02-26T10:00:28;4.30;;;1.17;;
21138;SDS011;10727;43.600;1.444;2024-02-26T10:04:09;4.30;;;1.27;;
21138;SDS011;10727;43.600;1.444;2024-02-26T10:07:48;2.72;;;1.02;;
21138;SDS011;10727;43.600;1.444;2024-02-26T10:11:28;4.35;;;1.10;;
21138;SDS011;10727;43.600;1.444;2024-02-26T10:15:07;4.53;;;0.93;;
21138;SDS011;10727;43.600;1.444;2024-02-26T10:18:46;4.90;;;1.25;;
21138;SDS011;10727;43.600;1.444;2024-02-26T10:22:25;3.83;;;0.90;;
21138;SDS011;10727;43.600;1.444;2024-02-26T10:26:06;2.05;;;0.80;;
21138;SDS011;10727;43.600;1.444;2024-02-26T10:29:46;3.85;;;1.20;;
21138;SDS011;10727;43.600;1.444;2024-02-26T10:33:25;8.25;;;1.20;;
21138;SDS011;10727;43.600;1.444;2024-02-26T10:37:05;3.92;;;0.95;;
21138;SDS011;10727;43.600;1.444;2024-02-26T10:40:44;6.72;;;1.08;;
21138;SDS011;10727;43.600;1.444;2024-02-26T10:44:23;3.78;;;1.05;;
21138;SDS011;10727;43.600;1.444;2024-02-26T10:48:03;6.32;;;1.05;;
21138;SDS011;10727;43.600;1.444;2024-02-26T10:51:43;3.65;;;1.15;;
21138;SDS011;10727;43.600;1.444;2024-02-26T10:55:22;3.10;;;0.90;;
21138;SDS011;10727;43.600;1.444;2024-02-26T10:59:03;3.15;;;0.95;;
21138;SDS011;10727;43.600;1.444;2024-02-26T11:02:42;5.00;;;1.10;;
21138;SDS011;10727;43.600;1.444;2024-02-26T11:06:23;4.43;;;1.17;;
21138;SDS011;10727;43.600;1.444;2024-02-26T11:10:04;3.88;;;1.00;;
21138;SDS011;10727;43.600;1.444;2024-02-26T11:13:44;3.30;;;1.00;;
21138;SDS011;10727;43.600;1.444;2024-02-26T11:17:25;3.50;;;0.98;;
21138;SDS011;10727;43.600;1.444;2024-02-26T11:21:04;3.08;;;0.90;;
21138;SDS011;10727;43.600;1.444;2024-02-26T11:24:45;6.25;;;0.98;;
21138;SDS011;10727;43.600;1.444;2024-02-26T11:28:27;2.33;;;0.70;;
21138;SDS011;10727;43.600;1.444;2024-02-26T11:32:06;1.55;;;0.80;;
21138;SDS011;10727;43.600;1.444;2024-02-26T11:35:45;1.98;;;0.98;;
21138;SDS011;10727;43.600;1.444;2024-02-26T11:39:24;2.08;;;0.80;;
21138;SDS011;10727;43.600;1.444;2024-02-26T11:43:06;3.67;;;0.95;;
21138;SDS011;10727;43.600;1.444;2024-02-26T11:46:45;2.47;;;0.70;;
21138;SDS011;10727;43.600;1.444;2024-02-26T11:50:33;5.20;;;2.50;;
21138;SDS011;10727;43.600;1.444;2024-02-26T11:54:13;6.35;;;2.13;;
21138;SDS011;10727;43.600;1.444;2024-02-26T11:57:52;4.55;;;1.42;;
21138;SDS011;10727;43.600;1.444;2024-02-26T12:01:42;3.85;;;1.50;;
21138;SDS011;10727;43.600;1.444;2024-02-26T12:05:22;3.40;;;1.20;;
21138;SDS011;10727;43.600;1.444;2024-02-26T12:09:02;3.13;;;1.15;;
21138;SDS011;10727;43.600;1.444;2024-02-26T12:12:41;3.40;;;1.45;;
21138;SDS011;10727;43.600;1.444;2024-02-26T12:16:34;3.78;;;1.20;;
21138;SDS011;10727;43.600;1.444;2024-02-26T12:20:16;2.80;;;1.20;;
21138;SDS011;10727;43.600;1.444;2024-02-26T12:23:56;3.40;;;1.17;;
21138;SDS011;10727;43.600;1.444;2024-02-26T12:27:45;5.70;;;0.98;;
21138;SDS011;10727;43.600;1.444;2024-02-26T12:31:24;2.83;;;1.13;;
21138;SDS011;10727;43.600;1.444;2024-02-26T12:35:03;3.03;;;1.00;;
21138;SDS011;10727;43.600;1.444;2024-02-26T12:38:43;2.35;;;0.90;;
21138;SDS011;10727;43.600;1.444;2024-02-26T12:42:22;2.78;;;0.90;;
21138;SDS011;10727;43.600;1.444;2024-02-26T12:46:02;3.15;;;1.10;;
21138;SDS011;10727;43.600;1.444;2024-02-26T12:49:42;3.38;;;0.98;;
21138;SDS011;10727;43.600;1.444;2024-02-26T12:53:21;2.25;;;1.20;;
21138;SDS011;10727;43.600;1.444;2024-02-26T12:57:01;3.67;;;1.40;;
21138;SDS011;10727;43.600;1.444;2024-02-26T13:00:41;3.85;;;1.33;;
21138;SDS011;10727;43.600;1.444;2024-02-26T13:04:20;5.75;;;2.40;;
21138;SDS011;10727;43.600;1.444;2024-02-26T13:07:59;5.05;;;2.20;;
21138;SDS011;10727;43.600;1.444;2024-02-26T13:11:39;5.38;;;1.95;;
21138;SDS011;10727;43.600;1.444;2024-02-26T13:15:21;4.93;;;1.75;;
21138;SDS011;10727;43.600;1.444;2024-02-26T13:19:07;3.50;;;1.17;;
21138;SDS011;10727;43.600;1.444;2024-02-26T13:22:46;5.22;;;1.90;;
21138;SDS011;10727;43.600;1.444;2024-02-26T13:26:26;3.13;;;1.50;;
21138;SDS011;10727;43.600;1.444;2024-02-26T13:30:05;3.03;;;1.20;;
21138;SDS011;10727;43.600;1.444;2024-02-26T13:33:50;2.67;;;1.10;;
21138;SDS011;10727;43.600;1.444;2024-02-26T13:37:29;3.40;;;1.67;;
21138;SDS011;10727;43.600;1.444;2024-02-26T13:41:08;2.13;;;0.90;;
21138;SDS011;10727;43.600;1.444;2024-02-26T13:44:47;1.55;;;0.55;;
21138;SDS011;10727;43.600;1.444;2024-02-26T13:48:26;1.10;;;0.70;;
21138;SDS011;10727;43.600;1.444;2024-02-26T13:52:06;2.10;;;0.70;;
21138;SDS011;10727;43.600;1.444;2024-02-26T13:55:45;1.90;;;0.70;;
21138;SDS011;10727;43.600;1.444;2024-02-26T13:59:25;1.35;;;0.65;;
21138;SDS011;10727;43.600;1.444;2024-02-26T14:03:04;3.08;;;1.10;;
21138;SDS011;10727;43.600;1.444;2024-02-26T14:06:43;1.23;;;0.73;;
21138;SDS011;10727;43.600;1.444;2024-02-26T14:10:24;1.75;;;0.80;;
21138;SDS011;10727;43.600;1.444;2024-02-26T14:14:05;1.63;;;0.80;;
21138;SDS011;10727;43.600;1.444;2024-02-26T14:17:44;1.80;;;0.90;;
21138;SDS011;10727;43.600;1.444;2024-02-26T14:21:26;4.43;;;0.77;;
21138;SDS011;10727;43.600;1.444;2024-02-26T14:25:05;3.42;;;0.70;;
21138;SDS011;10727;43.600;1.444;2024-02-26T14:28:45;1.70;;;0.70;;
21138;SDS011;10727;43.600;1.444;2024-02-26T14:32:24;1.35;;;0.80;;
21138;SDS011;10727;43.600;1.444;2024-02-26T14:36:06;1.38;;;0.60;;
21138;SDS011;10727;43.600;1.444;2024-02-26T14:39:44;2.53;;;1.00;;
21138;SDS011;10727;43.600;1.444;2024-02-26T14:43:23;2.42;;;0.70;;
21138;SDS011;10727;43.600;1.444;2024-02-26T14:47:03;1.85;;;0.60;;
21138;SDS011;10727;43.600;1.444;2024-02-26T14:50:42;3.08;;;1.50;;
21138;SDS011;10727;43.600;1.444;2024-02-26T14:54:21;1.75;;;1.30;;
21138;SDS011;10727;43.600;1.444;2024-02-26T14:58:02;3.83;;;0.80;;
21138;SDS011;10727;43.600;1.444;2024-02-26T15:01:42;1.52;;;0.90;;
21138;SDS011;10727;43.600;1.444;2024-02-26T15:05:22;0.90;;;0.70;;
21138;SDS011;10727;43.600;1.444;2024-02-26T15:09:01;1.38;;;0.80;;
21138;SDS011;10727;43.600;1.444;2024-02-26T15:12:41;1.13;;;0.60;;
21138;SDS011;10727;43.600;1.444;2024-02-26T15:16:20;1.42;;;0.82;;
21138;SDS011;10727;43.600;1.444;2024-02-26T15:19:59;3.28;;;1.00;;
21138;SDS011;10727;43.600;1.444;2024-02-26T15:23:42;3.22;;;0.80;;
21138;SDS011;10727;43.600;1.444;2024-02-26T15:27:24;0.77;;;0.60;;
21138;SDS011;10727;43.600;1.444;2024-02-26T15:31:03;1.30;;;0.52;;
21138;SDS011;10727;43.600;1.444;2024-02-26T15:34:42;1.10;;;0.60;;
21138;SDS011;10727;43.600;1.444;2024-02-26T15:38:21;1.23;;;0.65;;
21138;SDS011;10727;43.600;1.444;2024-02-26T15:42:01;0.77;;;0.57;;
21138;SDS011;10727;43.600;1.444;2024-02-26T15:45:40;2.30;;;0.90;;
21138;SDS011;10727;43.600;1.444;2024-02-26T15:49:19;2.00;;;0.70;;
21138;SDS011;10727;43.600;1.444;2024-02-26T15:52:59;0.98;;;0.73;;
21138;SDS011;10727;43.600;1.444;2024-02-26T15:56:38;0.70;;;0.63;;
21138;SDS011;10727;43.600;1.444;2024-02-26T16:00:19;0.43;;;0.43;;
21138;SDS011;10727;43.600;1.444;2024-02-26T16:03:58;0.50;;;0.40;;
21138;SDS011;10727;43.600;1.444;2024-02-26T16:07:37;0.88;;;0.60;;
21138;SDS011;10727;43.600;1.444;2024-02-26T16:11:19;1.02;;;0.60;;
21138;SDS011;10727;43.600;1.444;2024-02-26T16:14:58;0.50;;;0.40;;
21138;SDS011;10727;43.600;1.444;2024-02-26T16:18:38;0.77;;;0.50;;
21138;SDS011;10727;43.600;1.444;2024-02-26T16:22:17;1.40;;;0.50;;
21138;SDS011;10727;43.600;1.444;2024-02-26T16:25:56;2.95;;;0.40;;
21138;SDS011;10727;43.600;1.444;2024-02-26T16:29:35;0.60;;;0.50;;
21138;SDS011;10727;43.600;1.444;2024-02-26T16:33:14;0.63;;;0.63;;
21138;SDS011;10727;43.600;1.444;2024-02-26T16:36:54;0.77;;;0.60;;
21138;SDS011;10727;43.600;1.444;2024-02-26T16:40:33;0.65;;;0.65;;
21138;SDS011;10727;43.600;1.444;2024-02-26T16:44:12;1.67;;;0.90;;
21138;SDS011;10727;43.600;1.444;2024-02-26T16:47:51;0.93;;;0.60;;
21138;SDS011;10727;43.600;1.444;2024-02-26T16:51:30;1.15;;;0.50;;
21138;SDS011;10727;43.600;1.444;2024-02-26T16:55:10;1.48;;;0.80;;
21138;SDS011;10727;43.600;1.444;2024-02-26T16:58:49;1.77;;;0.95;;
21138;SDS011;10727;43.600;1.444;2024-02-26T17:02:28;1.52;;;0.80;;
21138;SDS011;10727;43.600;1.444;2024-02-26T17:06:07;1.13;;;0.52;;
21138;SDS011;10727;43.600;1.444;2024-02-26T17:09:53;0.65;;;0.60;;
21138;SDS011;10727;43.600;1.444;2024-02-26T17:13:33;2.75;;;0.60;;
21138;SDS011;10727;43.600;1.444;2024-02-26T17:17:12;1.05;;;0.60;;
21138;SDS011;10727;43.600;1.444;2024-02-26T17:20:51;1.40;;;0.57;;
21138;SDS011;10727;43.600;1.444;2024-02-26T17:24:30;0.50;;;0.50;;
21138;SDS011;10727;43.600;1.444;2024-02-26T17:28:10;1.50;;;0.82;;
21138;SDS011;10727;43.600;1.444;2024-02-26T17:31:50;1.52;;;0.80;;
21138;SDS011;10727;43.600;1.444;2024-02-26T17:35:29;1.13;;;0.70;;
21138;SDS011;10727;43.600;1.444;2024-02-26T17:39:08;1.23;;;0.60;;
21138;SDS011;10727;43.600;1.444;2024-02-26T17:42:41;0.95;;;0.70;;
21138;SDS011;10727;43.600;1.444;2024-02-26T17:45:47;0.77;;;0.60;;
21138;SDS011;10727;43.600;1.444;2024-02-26T17:48:53;2.08;;;0.70;;
21138;SDS011;10727;43.600;1.444;2024-02-26T17:52:01;1.42;;;1.33;;
21138;SDS011;10727;43.600;1.444;2024-02-26T17:55:06;2.78;;;1.70;;
21138;SDS011;10727;43.600;1.444;2024-02-26T17:58:12;2.72;;;1.70;;
21138;SDS011;10727;43.600;1.444;2024-02-26T18:01:18;2.22;;;1.67;;
21138;SDS011;10727;43.600;1.444;2024-02-26T18:04:25;3.28;;;1.70;;
21138;SDS011;10727;43.600;1.444;2024-02-26T18:07:30;2.20;;;1.48;;
21138;SDS011;10727;43.600;1.444;2024-02-26T18:10:36;2.67;;;1.40;;
21138;SDS011;10727;43.600;1.444;2024-02-26T18:13:41;3.25;;;1.98;;
21138;SDS011;10727;43.600;1.444;2024-02-26T18:16:48;2.63;;;1.50;;
21138;SDS011;10727;43.600;1.444;2024-02-26T18:19:55;2.22;;;1.20;;
21138;SDS011;10727;43.600;1.444;2024-02-26T18:23:00;2.97;;;1.60;;
21138;SDS011;10727;43.600;1.444;2024-02-26T18:26:06;3.28;;;0.90;;
21138;SDS011;10727;43.600;1.444;2024-02-26T18:29:10;2.90;;;1.30;;
21138;SDS011;10727;43.600;1.444;2024-02-26T18:32:17;1.77;;;1.17;;
21138;SDS011;10727;43.600;1.444;2024-02-26T18:35:24;2.17;;;1.15;;
21138;SDS011;10727;43.600;1.444;2024-02-26T18:38:29;2.00;;;1.00;;
21138;SDS011;10727;43.600;1.444;2024-02-26T18:41:34;3.20;;;2.00;;
21138;SDS011;10727;43.600;1.444;2024-02-26T18:44:40;3.55;;;1.90;;
21138;SDS011;10727;43.600;1.444;2024-02-26T18:47:45;4.30;;;1.55;;
21138;SDS011;10727;43.600;1.444;2024-02-26T18:50:52;4.35;;;1.67;;
21138;SDS011;10727;43.600;1.444;2024-02-26T18:53:57;3.33;;;1.58;;
21138;SDS011;10727;43.600;1.444;2024-02-26T18:57:02;3.67;;;1.42;;
21138;SDS011;10727;43.600;1.444;2024-02-26T19:00:08;2.03;;;1.30;;
21138;SDS011;10727;43.600;1.444;2024-02-26T19:03:14;3.25;;;1.85;;
21138;SDS011;10727;43.600;1.444;2024-02-26T19:06:20;1.95;;;1.17;;
21138;SDS011;10727;43.600;1.444;2024-02-26T19:09:26;1.88;;;1.10;;
21138;SDS011;10727;43.600;1.444;2024-02-26T19:12:31;2.42;;;1.38;;
21138;SDS011;10727;43.600;1.444;2024-02-26T19:15:36;1.92;;;1.20;;
21138;SDS011;10727;43.600;1.444;2024-02-26T19:18:44;2.78;;;1.20;;
21138;SDS011;10727;43.600;1.444;2024-02-26T19:21:50;3.75;;;1.17;;
21138;SDS011;10727;43.600;1.444;2024-02-26T19:24:56;2.75;;;1.50;;
21138;SDS011;10727;43.600;1.444;2024-02-26T19:28:01;2.53;;;1.30;;
21138;SDS011;10727;43.600;1.444;2024-02-26T19:31:06;3.65;;;1.20;;
21138;SDS011;10727;43.600;1.444;2024-02-26T19:34:12;2.58;;;1.30;;
21138;SDS011;10727;43.600;1.444;2024-02-26T19:37:19;3.35;;;1.20;;
21138;SDS011;10727;43.600;1.444;2024-02-26T19:40:28;1.65;;;1.10;;
21138;SDS011;10727;43.600;1.444;2024-02-26T19:43:33;4.35;;;1.50;;
21138;SDS011;10727;43.600;1.444;2024-02-26T19:46:38;3.08;;;1.33;;
21138;SDS011;10727;43.600;1.444;2024-02-26T19:49:43;2.17;;;1.35;;
21138;SDS011;10727;43.600;1.444;2024-02-26T19:52:50;2.55;;;1.30;;
21138;SDS011;10727;43.600;1.444;2024-02-26T19:55:56;4.82;;;1.60;;
21138;SDS011;10727;43.600;1.444;2024-02-26T19:59:01;2.58;;;1.42;;